createdAt,value
2019-01-05T00:00:58.806Z,7.20
2019-01-05T00:01:58.810Z,8.60
2019-01-05T00:02:58.793Z,11.70
2019-01-05T00:03:58.784Z,7.00
2019-01-05T00:04:58.756Z,9.40
2019-01-05T00:05:58.756Z,8.00
2019-01-05T00:06:58.754Z,9.80
2019-01-05T00:07:59.299Z,8.40
2019-01-05T00:08:59.723Z,10.30
2019-01-05T00:09:59.308Z,8.10
2019-01-05T00:10:59.701Z,9.70
2019-01-05T00:11:58.693Z,7.70
2019-01-05T00:12:58.679Z,10.10
2019-01-05T00:13:59.671Z,7.30
2019-01-05T00:14:58.654Z,8.80
2019-01-05T00:15:58.651Z,8.20
2019-01-05T00:16:58.645Z,6.50
2019-01-05T00:17:58.629Z,6.80
2019-01-05T00:18:58.621Z,8.60
2019-01-05T00:19:58.605Z,8.80
2019-01-05T00:20:59.309Z,8.50
2019-01-05T00:21:59.575Z,9.20
2019-01-05T00:22:58.570Z,8.30
2019-01-05T00:23:58.555Z,7.50
2019-01-05T00:24:58.561Z,6.70
2019-01-05T00:25:58.541Z,7.00
2019-01-05T00:26:58.530Z,6.70
2019-01-05T00:28:01.323Z,6.90
2019-01-05T00:28:58.503Z,6.20
2019-01-05T00:29:58.489Z,6.60
2019-01-05T00:30:58.483Z,7.70
2019-01-05T00:31:59.330Z,7.20
2019-01-05T00:32:58.464Z,6.60
2019-01-05T00:33:58.446Z,5.80
2019-01-05T00:34:58.445Z,8.40
2019-01-05T00:35:58.432Z,5.60
2019-01-05T00:36:58.417Z,7.30
2019-01-05T00:37:58.409Z,6.10
2019-01-05T00:38:58.402Z,8.30
2019-01-05T00:39:58.395Z,7.00
2019-01-05T00:40:58.378Z,8.80
2019-01-05T00:41:58.366Z,7.40
2019-01-05T00:42:58.355Z,7.50
2019-01-05T00:43:59.344Z,5.40
2019-01-05T00:44:58.329Z,5.80
2019-01-05T00:45:59.314Z,6.30
2019-01-05T00:46:58.812Z,6.30
2019-01-05T00:47:58.300Z,5.70
2019-01-05T00:48:58.313Z,7.80
2019-01-05T00:49:58.826Z,6.30
2019-01-05T00:50:58.273Z,6.70
2019-01-05T00:51:58.252Z,5.50
2019-01-05T00:52:59.254Z,6.70
2019-01-05T00:53:58.233Z,6.40
2019-01-05T00:54:58.225Z,5.50
2019-01-05T00:55:58.223Z,5.90
2019-01-05T00:56:58.198Z,6.30
2019-01-05T00:57:58.189Z,6.80
2019-01-05T00:58:58.322Z,4.40
2019-01-05T00:59:58.189Z,7.50
2019-01-05T01:00:58.189Z,8.50
2019-01-05T01:01:58.995Z,6.30
2019-01-05T01:02:58.139Z,5.20
2019-01-05T01:03:58.141Z,7.50
2019-01-05T01:04:58.117Z,6.30
2019-01-05T01:05:58.110Z,6.10
2019-01-05T01:06:58.438Z,7.10
2019-01-05T01:08:00.809Z,6.10
2019-01-05T01:08:58.827Z,5.20
2019-01-05T01:09:58.094Z,5.30
2019-01-05T01:10:58.206Z,5.80
2019-01-05T01:11:58.042Z,5.30
2019-01-05T01:12:58.033Z,6.70
2019-01-05T01:13:58.015Z,6.70
2019-01-05T01:14:58.010Z,5.40
2019-01-05T01:16:05.783Z,7.30
2019-01-05T01:16:57.991Z,8.70
2019-01-05T01:17:58.078Z,6.40
2019-01-05T01:18:57.974Z,6.90
2019-01-05T01:19:57.952Z,10.60
2019-01-05T01:20:57.948Z,7.50
2019-01-05T01:21:57.932Z,6.00
2019-01-05T01:22:57.915Z,6.10
2019-01-05T01:23:59.891Z,4.60
2019-01-05T01:24:57.898Z,5.80
2019-01-05T01:26:05.583Z,5.90
2019-01-05T01:27:05.060Z,7.60
2019-01-05T01:28:06.977Z,8.20
2019-01-05T01:28:57.852Z,5.60
2019-01-05T01:30:05.497Z,6.00
2019-01-05T01:31:05.033Z,6.40
2019-01-05T01:32:05.067Z,6.60
2019-01-05T01:33:05.926Z,8.30
2019-01-05T01:34:06.392Z,6.40
2019-01-05T01:35:05.877Z,5.10
2019-01-05T01:35:59.720Z,7.60
2019-01-05T01:37:05.842Z,5.50
2019-01-05T01:37:58.743Z,6.30
2019-01-05T01:38:57.747Z,8.70
2019-01-05T01:39:57.738Z,6.00
2019-01-05T01:40:57.718Z,4.80
2019-01-05T01:41:58.247Z,6.10
2019-01-05T01:42:57.700Z,6.10
2019-01-05T01:43:57.744Z,5.00
2019-01-05T01:44:59.245Z,5.90
2019-01-05T01:45:57.673Z,8.00
2019-01-05T01:46:58.668Z,7.70
2019-01-05T01:47:57.649Z,6.40
2019-01-05T01:48:58.210Z,7.00
2019-01-05T01:49:57.626Z,7.30
2019-01-05T01:50:58.251Z,6.40
2019-01-05T01:51:57.602Z,6.00
2019-01-05T01:52:57.603Z,5.00
2019-01-05T01:53:58.237Z,6.20
2019-01-05T01:54:57.573Z,8.30
2019-01-05T01:55:57.562Z,7.20
2019-01-05T01:56:57.548Z,7.30
2019-01-05T01:57:57.540Z,5.50
2019-01-05T01:58:57.539Z,5.10
2019-01-05T01:59:57.522Z,5.50
2019-01-05T02:00:57.511Z,5.80
2019-01-05T02:01:57.497Z,6.40
2019-01-05T02:02:57.487Z,6.10
2019-01-05T02:03:57.486Z,5.30
2019-01-05T02:04:57.469Z,5.20
2019-01-05T02:05:57.457Z,6.00
2019-01-05T02:06:57.455Z,5.30
2019-01-05T02:07:58.275Z,5.40
2019-01-05T02:08:57.428Z,5.00
2019-01-05T02:09:57.408Z,5.10
2019-01-05T02:10:57.417Z,4.60
2019-01-05T02:11:57.404Z,5.20
2019-01-05T02:12:57.378Z,4.60
2019-01-05T02:13:57.412Z,4.70
2019-01-05T02:14:57.359Z,4.00
2019-01-05T02:15:57.346Z,4.90
2019-01-05T02:16:57.337Z,5.50
2019-01-05T02:17:57.326Z,4.60
2019-01-05T02:18:57.316Z,4.40
2019-01-05T02:19:58.249Z,5.50
2019-01-05T02:20:57.293Z,4.80
2019-01-05T02:21:57.281Z,5.60
2019-01-05T02:22:57.268Z,5.40
2019-01-05T02:23:57.257Z,5.20
2019-01-05T02:24:57.252Z,5.30
2019-01-05T02:25:57.237Z,4.00
2019-01-05T02:26:57.758Z,4.60
2019-01-05T02:27:57.714Z,5.70
2019-01-05T02:28:57.208Z,4.80
2019-01-05T02:29:57.192Z,4.80
2019-01-05T02:30:57.184Z,4.50
2019-01-05T02:31:58.772Z,4.50
2019-01-05T02:32:57.159Z,4.10
2019-01-05T02:33:57.167Z,4.40
2019-01-05T02:34:57.158Z,4.40
2019-01-05T02:35:57.132Z,3.90
2019-01-05T02:36:57.122Z,3.70
2019-01-05T02:37:57.119Z,4.90
2019-01-05T02:38:57.095Z,4.20
2019-01-05T02:39:57.091Z,4.10
2019-01-05T02:41:00.740Z,3.40
2019-01-05T02:41:57.079Z,4.30
2019-01-05T02:42:57.055Z,4.20
2019-01-05T02:43:57.043Z,3.30
2019-01-05T02:44:58.759Z,4.50
2019-01-05T02:45:57.734Z,3.80
2019-01-05T02:46:57.020Z,3.40
2019-01-05T02:47:57.002Z,4.10
2019-01-05T02:48:56.992Z,3.60
2019-01-05T02:49:56.975Z,3.30
2019-01-05T02:50:56.969Z,3.20
2019-01-05T02:51:56.958Z,3.60
2019-01-05T02:52:56.970Z,3.80
2019-01-05T02:53:57.777Z,3.60
2019-01-05T02:54:56.932Z,3.40
2019-01-05T02:55:56.940Z,3.50
2019-01-05T02:56:56.904Z,3.80
2019-01-05T02:57:56.906Z,3.90
2019-01-05T02:58:56.900Z,3.80
2019-01-05T02:59:56.888Z,3.60
2019-01-05T03:00:57.751Z,4.30
2019-01-05T03:01:57.716Z,36.60
2019-01-05T03:02:56.836Z,31.90
2019-01-05T03:03:56.854Z,13.80
2019-01-05T03:04:56.813Z,5.50
2019-01-05T03:05:57.754Z,8.00
2019-01-05T03:06:57.765Z,10.70
2019-01-05T03:07:56.785Z,3.60
2019-01-05T03:08:56.777Z,5.20
2019-01-05T03:09:57.759Z,4.40
2019-01-05T03:10:56.747Z,4.60
2019-01-05T03:11:56.774Z,2.90
2019-01-05T03:12:56.722Z,3.70
2019-01-05T03:13:58.730Z,3.40
2019-01-05T03:14:56.727Z,3.40
2019-01-05T03:15:56.707Z,3.00
2019-01-05T03:16:56.696Z,3.40
2019-01-05T03:17:56.679Z,2.90
2019-01-05T03:18:56.684Z,3.20
2019-01-05T03:20:48.477Z,3.10
2019-01-05T03:21:48.456Z,3.20
2019-01-05T03:22:48.483Z,3.00
2019-01-05T03:23:48.429Z,3.20
2019-01-05T03:24:48.428Z,2.70
2019-01-05T03:25:48.414Z,3.70
2019-01-05T03:26:48.408Z,3.60
2019-01-05T03:27:48.410Z,3.60
2019-01-05T03:28:48.383Z,4.10
2019-01-05T03:29:48.383Z,4.80
2019-01-05T03:30:49.262Z,3.90
2019-01-05T03:31:49.378Z,4.10
2019-01-05T03:32:48.360Z,3.40
2019-01-05T03:33:48.329Z,5.50
2019-01-05T03:34:48.322Z,3.10
2019-01-05T03:35:48.313Z,3.70
2019-01-05T03:36:49.262Z,3.40
2019-01-05T03:37:48.290Z,2.30
2019-01-05T03:38:50.267Z,3.90
2019-01-05T03:39:48.257Z,3.80
2019-01-05T03:40:48.251Z,2.70
2019-01-05T03:41:48.259Z,2.80
2019-01-05T03:42:48.252Z,3.10
2019-01-05T03:43:48.223Z,2.80
2019-01-05T03:44:48.773Z,3.10
2019-01-05T03:45:49.197Z,4.30
2019-01-05T03:46:48.236Z,3.50
2019-01-05T03:47:49.178Z,5.00
2019-01-05T03:48:49.168Z,3.50
2019-01-05T03:49:48.161Z,4.50
2019-01-05T03:50:48.766Z,2.40
2019-01-05T03:51:48.134Z,2.20
2019-01-05T03:52:48.120Z,4.00
2019-01-05T03:53:48.110Z,2.90
2019-01-05T03:54:48.102Z,5.10
2019-01-05T03:55:48.097Z,2.70
2019-01-05T03:56:48.091Z,3.20
2019-01-05T03:57:48.768Z,2.50
2019-01-05T03:58:48.772Z,2.50
2019-01-05T03:59:48.044Z,2.10
2019-01-05T04:00:48.058Z,3.00
2019-01-05T04:01:48.071Z,2.60
2019-01-05T04:02:48.012Z,2.60
2019-01-05T04:03:47.999Z,2.70
2019-01-05T04:04:48.012Z,2.90
2019-01-05T04:05:48.021Z,2.50
2019-01-05T04:06:48.787Z,3.80
2019-01-05T04:07:47.972Z,3.90
2019-01-05T04:08:47.951Z,2.00
2019-01-05T04:09:47.948Z,2.10
2019-01-05T04:10:49.764Z,2.60
2019-01-05T04:11:48.831Z,2.80
2019-01-05T04:12:47.896Z,2.60
2019-01-05T04:13:47.913Z,2.90
2019-01-05T04:14:47.893Z,2.90
2019-01-05T04:15:47.875Z,3.30
2019-01-05T04:16:47.878Z,2.70
2019-01-05T04:17:47.858Z,2.40
2019-01-05T04:18:47.863Z,2.60
2019-01-05T04:19:47.854Z,2.40
2019-01-05T04:20:47.817Z,2.90
2019-01-05T04:21:49.425Z,2.50
2019-01-05T04:22:47.814Z,2.40
2019-01-05T04:23:47.786Z,2.30
2019-01-05T04:24:47.786Z,1.90
2019-01-05T04:25:47.769Z,2.00
2019-01-05T04:26:47.754Z,2.20
2019-01-05T04:27:47.769Z,2.20
2019-01-05T04:28:48.742Z,2.40
2019-01-05T04:29:47.722Z,2.20
2019-01-05T04:30:47.722Z,1.80
2019-01-05T04:31:47.744Z,1.80
2019-01-05T04:32:47.695Z,2.00
2019-01-05T04:33:47.685Z,2.00
2019-01-05T04:34:49.310Z,2.20
2019-01-05T04:35:47.657Z,2.00
2019-01-05T04:36:47.645Z,2.00
2019-01-05T04:37:48.279Z,2.00
2019-01-05T04:38:48.628Z,1.70
2019-01-05T04:39:47.613Z,2.40
2019-01-05T04:40:47.610Z,2.30
2019-01-05T04:41:49.283Z,2.00
2019-01-05T04:42:47.578Z,2.10
2019-01-05T04:43:47.603Z,2.20
2019-01-05T04:44:47.561Z,1.80
2019-01-05T04:45:47.585Z,2.30
2019-01-05T04:46:48.295Z,2.10
2019-01-05T04:47:47.524Z,1.50
2019-01-05T04:48:47.524Z,1.90
2019-01-05T04:49:47.510Z,1.90
2019-01-05T04:50:48.270Z,2.10
2019-01-05T04:51:48.277Z,1.90
2019-01-05T04:52:48.284Z,2.30
2019-01-05T04:53:47.458Z,2.30
2019-01-05T04:54:47.448Z,2.20
2019-01-05T04:55:47.433Z,2.30
2019-01-05T04:56:47.424Z,2.20
2019-01-05T04:57:47.413Z,2.10
2019-01-05T04:58:48.269Z,2.60
2019-01-05T04:59:47.408Z,2.30
2019-01-05T05:00:47.408Z,1.90
2019-01-05T05:01:49.285Z,2.20
2019-01-05T05:02:47.378Z,2.60
2019-01-05T05:03:47.362Z,2.10
2019-01-05T05:04:47.359Z,2.20
2019-01-05T05:05:47.332Z,1.90
2019-01-05T05:06:47.320Z,2.00
2019-01-05T05:07:48.286Z,2.10
2019-01-05T05:08:47.300Z,2.00
2019-01-05T05:09:49.274Z,1.90
2019-01-05T05:10:47.280Z,2.10
2019-01-05T05:11:47.272Z,1.70
2019-01-05T05:12:47.252Z,2.00
2019-01-05T05:13:47.244Z,2.20
2019-01-05T05:14:47.245Z,2.10
2019-01-05T05:15:47.231Z,2.40
2019-01-05T05:16:47.227Z,1.70
2019-01-05T05:17:47.218Z,2.30
2019-01-05T05:18:47.190Z,2.10
2019-01-05T05:19:47.188Z,1.90
2019-01-05T05:20:47.173Z,2.20
2019-01-05T05:21:48.777Z,1.80
2019-01-05T05:22:47.143Z,2.40
2019-01-05T05:23:47.144Z,2.40
2019-01-05T05:24:47.129Z,2.20
2019-01-05T05:25:47.127Z,1.90
2019-01-05T05:26:47.110Z,2.10
2019-01-05T05:27:47.103Z,2.30
2019-01-05T05:28:47.082Z,2.30
2019-01-05T05:29:47.076Z,2.20
2019-01-05T05:30:48.732Z,2.10
2019-01-05T05:31:47.043Z,2.00
2019-01-05T05:32:47.039Z,2.20
2019-01-05T05:33:47.044Z,2.40
2019-01-05T05:34:47.021Z,2.10
2019-01-05T05:35:47.775Z,1.90
2019-01-05T05:36:46.989Z,2.10
2019-01-05T05:37:47.798Z,2.10
2019-01-05T05:38:46.983Z,2.40
2019-01-05T05:39:46.967Z,1.90
2019-01-05T05:40:46.957Z,2.10
2019-01-05T05:41:46.966Z,2.10
2019-01-05T05:42:46.935Z,2.50
2019-01-05T05:43:47.774Z,2.10
2019-01-05T05:44:48.773Z,2.20
2019-01-05T05:45:47.885Z,2.20
2019-01-05T05:46:46.896Z,2.20
2019-01-05T05:47:46.878Z,2.10
2019-01-05T05:48:46.875Z,2.70
2019-01-05T05:49:46.855Z,2.20
2019-01-05T05:50:46.842Z,2.20
2019-01-05T05:51:46.830Z,2.50
2019-01-05T05:52:46.841Z,2.30
2019-01-05T05:53:46.810Z,2.20
2019-01-05T05:54:48.780Z,2.20
2019-01-05T05:55:46.797Z,2.30
2019-01-05T05:56:46.784Z,2.70
2019-01-05T05:57:46.769Z,2.50
2019-01-05T05:58:46.759Z,2.90
2019-01-05T05:59:46.752Z,2.50
2019-01-05T06:00:48.297Z,2.40
2019-01-05T06:01:46.721Z,2.30
2019-01-05T06:02:47.721Z,2.20
2019-01-05T06:03:46.712Z,2.50
2019-01-05T06:04:46.692Z,2.30
2019-01-05T06:05:46.697Z,2.20
2019-01-05T06:06:46.672Z,2.20
2019-01-05T06:07:46.655Z,2.50
2019-01-05T06:08:47.275Z,2.30
2019-01-05T06:09:47.633Z,2.60
2019-01-05T06:10:46.634Z,2.50
2019-01-05T06:11:46.617Z,2.40
2019-01-05T06:12:46.626Z,2.20
2019-01-05T06:13:46.603Z,2.50
2019-01-05T06:14:46.637Z,2.70
2019-01-05T06:15:46.577Z,2.70
2019-01-05T06:16:46.564Z,2.60
2019-01-05T06:17:47.556Z,2.50
2019-01-05T06:18:46.559Z,2.60
2019-01-05T06:19:46.537Z,2.50
2019-01-05T06:20:46.517Z,2.50
2019-01-05T06:21:46.526Z,2.70
2019-01-05T06:22:47.277Z,2.20
2019-01-05T06:23:46.485Z,2.50
2019-01-05T06:24:46.485Z,2.70
2019-01-05T06:25:46.468Z,2.60
2019-01-05T06:26:46.439Z,2.60
2019-01-05T06:27:46.441Z,2.60
2019-01-05T06:28:47.282Z,2.50
2019-01-05T06:29:46.438Z,2.40
2019-01-05T06:30:46.420Z,2.80
2019-01-05T06:31:46.411Z,2.90
2019-01-05T06:32:46.380Z,2.60
2019-01-05T06:33:47.277Z,2.60
2019-01-05T06:34:46.371Z,2.70
2019-01-05T06:35:46.371Z,3.00
2019-01-05T06:36:46.343Z,2.70
2019-01-05T06:37:46.330Z,2.90
2019-01-05T06:38:46.337Z,3.20
2019-01-05T06:39:46.347Z,2.90
2019-01-05T06:40:46.309Z,3.20
2019-01-05T06:41:46.293Z,3.00
2019-01-05T06:42:46.307Z,3.00
2019-01-05T06:43:46.327Z,3.20
2019-01-05T06:44:46.271Z,3.10
2019-01-05T06:45:46.807Z,3.30
2019-01-05T06:46:46.758Z,3.10
2019-01-05T06:47:46.269Z,3.30
2019-01-05T06:48:46.224Z,3.50
2019-01-05T06:49:46.214Z,3.30
2019-01-05T06:50:46.187Z,3.50
2019-01-05T06:51:46.187Z,3.30
2019-01-05T06:52:46.756Z,3.30
2019-01-05T06:53:46.160Z,3.60
2019-01-05T06:54:46.753Z,3.40
2019-01-05T06:55:46.138Z,3.70
2019-01-05T06:56:47.785Z,3.60
2019-01-05T06:57:46.132Z,3.50
2019-01-05T06:58:46.138Z,4.00
2019-01-05T06:59:46.097Z,3.50
2019-01-05T07:00:46.795Z,3.90
2019-01-05T07:01:46.072Z,3.50
2019-01-05T07:02:46.077Z,3.70
2019-01-05T07:03:46.065Z,3.80
2019-01-05T07:04:46.044Z,3.60
2019-01-05T07:05:46.817Z,3.60
2019-01-05T07:06:46.811Z,3.80
2019-01-05T07:07:46.033Z,4.20
2019-01-05T07:08:45.995Z,3.90
2019-01-05T07:09:45.998Z,3.70
2019-01-05T07:10:45.977Z,4.20
2019-01-05T07:11:45.979Z,3.90
2019-01-05T07:12:45.982Z,3.40
2019-01-05T07:13:46.843Z,4.50
2019-01-05T07:14:45.948Z,4.00
2019-01-05T07:15:47.836Z,4.00
2019-01-05T07:16:45.947Z,3.80
2019-01-05T07:17:45.904Z,4.40
2019-01-05T07:18:47.825Z,4.10
2019-01-05T07:19:46.757Z,4.70
2019-01-05T07:20:45.871Z,4.60
2019-01-05T07:21:45.858Z,4.60
2019-01-05T07:22:45.846Z,5.00
2019-01-05T07:23:45.835Z,4.50
2019-01-05T07:24:45.846Z,4.70
2019-01-05T07:25:47.785Z,4.80
2019-01-05T07:26:46.756Z,5.10
2019-01-05T07:27:45.787Z,4.60
2019-01-05T07:28:46.290Z,4.50
2019-01-05T07:29:46.752Z,4.70
2019-01-05T07:30:46.303Z,5.00
2019-01-05T07:31:45.789Z,4.90
2019-01-05T07:32:45.769Z,4.70
2019-01-05T07:33:45.740Z,5.20
2019-01-05T07:34:45.762Z,5.20
2019-01-05T07:35:45.711Z,5.20
2019-01-05T07:36:46.290Z,5.10
2019-01-05T07:37:45.685Z,4.90
2019-01-05T07:38:45.672Z,4.70
2019-01-05T07:39:45.653Z,5.30
2019-01-05T07:40:45.648Z,4.80
2019-01-05T07:41:45.635Z,5.10
2019-01-05T07:42:45.622Z,4.90
2019-01-05T07:43:45.627Z,4.90
2019-01-05T07:44:45.613Z,4.70
2019-01-05T07:45:47.288Z,5.30
2019-01-05T07:46:45.584Z,5.10
2019-01-05T07:47:45.564Z,4.90
2019-01-05T07:48:45.582Z,5.10
2019-01-05T07:49:45.552Z,5.20
2019-01-05T07:50:45.530Z,5.20
2019-01-05T07:51:45.526Z,4.90
2019-01-05T07:52:47.259Z,5.10
2019-01-05T07:53:45.518Z,5.20
2019-01-05T07:54:45.495Z,5.20
2019-01-05T07:55:45.482Z,5.40
2019-01-05T07:56:45.476Z,5.30
2019-01-05T07:57:45.459Z,5.10
2019-01-05T07:59:38.152Z,5.00
2019-01-05T08:00:38.137Z,5.00
2019-01-05T08:01:38.111Z,5.20
2019-01-05T08:02:40.055Z,5.00
2019-01-05T08:03:39.077Z,5.00
2019-01-05T08:04:40.058Z,4.90
2019-01-05T08:05:38.069Z,5.10
2019-01-05T08:06:38.565Z,5.10
2019-01-05T08:07:39.552Z,5.30
2019-01-05T08:08:39.035Z,5.40
2019-01-05T08:09:38.024Z,5.20
2019-01-05T08:10:38.015Z,5.50
2019-01-05T08:11:38.011Z,4.70
2019-01-05T08:12:37.992Z,4.70
2019-01-05T08:13:38.005Z,5.40
2019-01-05T08:14:37.979Z,5.60
2019-01-05T08:15:37.957Z,5.70
2019-01-05T08:16:38.949Z,5.50
2019-01-05T08:17:38.982Z,5.90
2019-01-05T08:18:38.247Z,5.00
2019-01-05T08:19:37.918Z,5.40
2019-01-05T08:20:38.529Z,5.50
2019-01-05T08:21:38.908Z,5.40
2019-01-05T08:22:37.897Z,5.80
2019-01-05T08:23:37.894Z,5.40
2019-01-05T08:24:37.888Z,5.50
2019-01-05T08:25:37.890Z,5.20
2019-01-05T08:26:38.556Z,5.40
2019-01-05T08:27:37.873Z,5.10
2019-01-05T08:28:37.821Z,5.40
2019-01-05T08:29:38.840Z,5.20
2019-01-05T08:30:37.798Z,4.90
2019-01-05T08:31:37.792Z,5.10
2019-01-05T08:32:38.574Z,5.10
2019-01-05T08:33:37.774Z,5.40
2019-01-05T08:34:40.602Z,5.20
2019-01-05T08:35:38.586Z,5.20
2019-01-05T08:36:46.159Z,4.80
2019-01-05T08:37:45.643Z,5.50
2019-01-05T08:38:45.130Z,5.20
2019-01-05T08:39:46.606Z,5.40
2019-01-05T08:40:45.086Z,5.10
2019-01-05T08:41:45.578Z,5.10
2019-01-05T08:42:45.056Z,4.80
2019-01-05T08:43:48.370Z,5.00
2019-01-05T08:44:45.997Z,5.60
2019-01-05T08:45:45.498Z,5.30
2019-01-05T08:47:50.092Z,5.00
2019-01-05T08:48:49.625Z,5.10
2019-01-05T08:49:49.055Z,5.30
2019-01-05T08:50:49.215Z,5.60
2019-01-05T08:51:49.188Z,5.50
2019-01-05T08:52:49.598Z,5.20
2019-01-05T08:53:49.017Z,5.30
2019-01-05T08:54:48.997Z,4.90
2019-01-05T08:55:48.997Z,5.30
2019-01-05T08:56:48.983Z,5.50
2019-01-05T08:57:48.971Z,5.50
2019-01-05T08:58:48.990Z,5.40
2019-01-05T08:59:49.616Z,5.00
2019-01-05T09:00:49.626Z,5.60
2019-01-05T09:01:48.986Z,5.30
2019-01-05T09:02:48.920Z,5.40
2019-01-05T09:03:48.928Z,5.60
2019-01-05T09:04:48.893Z,4.90
2019-01-05T09:05:48.884Z,5.30
2019-01-05T09:06:49.614Z,5.40
2019-01-05T09:07:49.863Z,5.70
2019-01-05T09:08:50.762Z,5.90
2019-01-05T09:09:49.621Z,5.60
2019-01-05T09:10:48.835Z,5.50
2019-01-05T09:11:48.819Z,5.60
2019-01-05T09:12:48.817Z,5.90
2019-01-05T09:13:48.793Z,5.40
2019-01-05T09:14:48.789Z,5.10
2019-01-05T09:15:48.828Z,5.60
2019-01-05T09:16:50.579Z,5.40
2019-01-05T09:17:48.766Z,5.50
2019-01-05T09:18:49.605Z,5.10
2019-01-05T09:19:48.740Z,5.00
2019-01-05T09:20:48.731Z,5.30
2019-01-05T09:21:48.708Z,5.20
2019-01-05T09:22:50.628Z,5.60
2019-01-05T09:23:49.694Z,5.20
2019-01-05T09:24:48.680Z,5.50
2019-01-05T09:25:48.688Z,5.50
2019-01-05T09:26:48.701Z,5.20
2019-01-05T09:27:48.644Z,5.10
2019-01-05T09:28:48.635Z,4.90
2019-01-05T09:29:48.638Z,5.30
2019-01-05T09:30:52.091Z,5.00
2019-01-05T09:31:50.121Z,5.00
2019-01-05T09:32:48.593Z,5.60
2019-01-05T09:33:48.576Z,5.10
2019-01-05T09:34:50.153Z,5.00
2019-01-05T09:35:49.091Z,5.70
2019-01-05T09:36:49.126Z,5.20
2019-01-05T09:37:48.546Z,4.80
2019-01-05T09:38:49.527Z,4.90
2019-01-05T09:39:48.510Z,4.90
2019-01-05T09:40:48.510Z,4.90
2019-01-05T09:41:49.092Z,4.90
2019-01-05T09:42:48.492Z,5.10
2019-01-05T09:43:48.488Z,4.80
2019-01-05T09:44:48.470Z,4.70
2019-01-05T09:45:50.147Z,4.90
2019-01-05T09:46:51.147Z,4.90
2019-01-05T09:47:48.453Z,5.40
2019-01-05T09:48:48.428Z,4.60
2019-01-05T09:49:48.407Z,4.60
2019-01-05T09:50:48.414Z,4.70
2019-01-05T09:51:49.130Z,4.50
2019-01-05T09:52:50.124Z,4.40
2019-01-05T09:53:49.125Z,4.50
2019-01-05T09:54:49.129Z,4.10
2019-01-05T09:55:49.142Z,4.30
2019-01-05T09:56:48.334Z,4.30
2019-01-05T09:57:48.325Z,4.20
2019-01-05T09:58:48.317Z,4.50
2019-01-05T09:59:48.309Z,4.30
2019-01-05T10:00:48.297Z,4.60
2019-01-05T10:01:48.297Z,4.70
2019-01-05T10:02:50.153Z,4.60
2019-01-05T10:03:48.257Z,4.60
2019-01-05T10:04:49.128Z,4.30
2019-01-05T10:05:48.234Z,4.50
2019-01-05T10:06:48.225Z,4.10
2019-01-05T10:07:50.155Z,4.30
2019-01-05T10:08:48.202Z,4.10
2019-01-05T10:09:48.187Z,4.60
2019-01-05T10:10:51.100Z,3.70
2019-01-05T10:12:42.292Z,4.60
2019-01-05T10:13:42.774Z,4.40
2019-01-05T10:14:43.742Z,4.40
2019-01-05T10:15:41.835Z,5.00
2019-01-05T10:16:41.847Z,4.40
2019-01-05T10:17:43.788Z,4.20
2019-01-05T10:18:41.795Z,4.70
2019-01-05T10:19:41.781Z,4.70
2019-01-05T10:20:48.280Z,4.50
2019-01-05T10:21:41.772Z,4.40
2019-01-05T10:22:43.282Z,4.60
2019-01-05T10:23:41.737Z,4.20
2019-01-05T10:24:41.727Z,4.30
2019-01-05T10:25:42.287Z,4.20
2019-01-05T10:26:42.273Z,4.30
2019-01-05T10:27:46.406Z,4.50
2019-01-05T10:28:41.681Z,4.60
2019-01-05T10:29:42.247Z,4.50
2019-01-05T10:30:41.698Z,4.40
2019-01-05T10:31:42.647Z,4.50
2019-01-05T10:32:41.639Z,4.10
2019-01-05T10:33:42.633Z,4.30
2019-01-05T10:34:41.742Z,4.40
2019-01-05T10:35:41.633Z,4.50
2019-01-05T10:36:41.624Z,4.00
2019-01-05T10:37:43.271Z,4.10
2019-01-05T10:38:41.571Z,4.50
2019-01-05T10:39:41.572Z,4.10
2019-01-05T10:40:42.288Z,4.30
2019-01-05T10:41:41.570Z,3.70
2019-01-05T10:42:41.533Z,3.80
2019-01-05T10:43:41.517Z,3.70
2019-01-05T10:44:41.713Z,4.20
2019-01-05T10:45:42.273Z,3.80
2019-01-05T10:46:43.280Z,3.70
2019-01-05T10:47:41.488Z,4.20
2019-01-05T10:48:41.469Z,3.90
2019-01-05T10:49:41.457Z,4.00
2019-01-05T10:50:41.446Z,4.20
2019-01-05T10:51:41.442Z,3.40
2019-01-05T10:52:41.417Z,3.80
2019-01-05T10:53:41.490Z,3.80
2019-01-05T10:54:42.296Z,4.10
2019-01-05T10:55:42.289Z,3.70
2019-01-05T10:56:41.376Z,3.90
2019-01-05T10:57:43.298Z,3.70
2019-01-05T10:58:42.293Z,3.60
2019-01-05T10:59:41.344Z,3.70
2019-01-05T11:00:41.325Z,4.10
2019-01-05T11:01:41.330Z,4.00
2019-01-05T11:02:43.304Z,3.90
2019-01-05T11:03:45.304Z,4.30
2019-01-05T11:04:41.293Z,4.30
2019-01-05T11:05:42.253Z,4.30
2019-01-05T11:06:43.871Z,4.10
2019-01-05T11:07:41.258Z,4.30
2019-01-05T11:08:42.264Z,4.50
2019-01-05T11:09:41.232Z,4.30
2019-01-05T11:10:42.235Z,4.60
2019-01-05T11:11:41.795Z,4.20
2019-01-05T11:12:41.903Z,4.50
2019-01-05T11:13:42.189Z,4.20
2019-01-05T11:14:41.791Z,4.20
2019-01-05T11:15:41.800Z,3.80
2019-01-05T11:16:41.221Z,4.20
2019-01-05T11:17:41.812Z,4.20
2019-01-05T11:18:41.130Z,4.40
2019-01-05T11:19:41.129Z,4.40
2019-01-05T11:20:41.794Z,4.10
2019-01-05T11:21:41.098Z,4.10
2019-01-05T11:22:41.106Z,4.60
2019-01-05T11:23:41.094Z,4.20
2019-01-05T11:24:42.788Z,4.00
2019-01-05T11:25:42.817Z,4.10
2019-01-05T11:26:41.046Z,4.10
2019-01-05T11:27:42.033Z,3.90
2019-01-05T11:28:41.029Z,4.10
2019-01-05T11:29:42.793Z,3.90
2019-01-05T11:30:42.005Z,3.80
2019-01-05T11:31:42.034Z,4.40
2019-01-05T11:32:41.981Z,4.20
2019-01-05T11:33:42.831Z,3.80
2019-01-05T11:34:40.960Z,3.80
2019-01-05T11:35:40.953Z,4.00
2019-01-05T11:36:40.958Z,4.20
2019-01-05T11:37:41.812Z,3.90
2019-01-05T11:38:40.916Z,3.90
2019-01-05T11:39:41.789Z,4.00
2019-01-05T11:40:41.789Z,3.50
2019-01-05T11:41:42.791Z,3.70
2019-01-05T11:42:40.872Z,3.90
2019-01-05T11:43:41.806Z,3.70
2019-01-05T11:44:40.868Z,3.60
2019-01-05T11:45:40.873Z,3.90
2019-01-05T11:46:40.833Z,3.40
2019-01-05T11:47:41.784Z,3.70
2019-01-05T11:48:41.813Z,3.50
2019-01-05T11:49:41.832Z,3.70
2019-01-05T11:50:40.801Z,3.60
2019-01-05T11:51:40.784Z,3.50
2019-01-05T11:52:40.835Z,3.70
2019-01-05T11:53:40.761Z,3.20
2019-01-05T11:54:40.740Z,3.40
2019-01-05T11:55:40.731Z,3.40
2019-01-05T11:56:40.712Z,3.80
2019-01-05T11:57:40.709Z,3.90
2019-01-05T11:58:40.751Z,3.80
2019-01-05T11:59:41.307Z,3.40
2019-01-05T12:00:40.673Z,4.40
2019-01-05T12:01:40.665Z,3.40
2019-01-05T12:02:40.647Z,4.30
2019-01-05T12:03:40.650Z,3.40
2019-01-05T12:05:32.862Z,3.80
2019-01-05T12:06:32.582Z,3.80
2019-01-05T12:07:32.573Z,3.80
2019-01-05T12:08:32.611Z,3.60
2019-01-05T12:09:32.548Z,4.00
2019-01-05T12:10:32.533Z,3.70
2019-01-05T12:11:32.536Z,3.40
2019-01-05T12:12:33.205Z,3.90
2019-01-05T12:13:32.510Z,3.80
2019-01-05T12:14:33.613Z,3.60
2019-01-05T12:15:32.526Z,3.40
2019-01-05T12:16:32.514Z,3.70
2019-01-05T12:17:32.549Z,3.60
2019-01-05T12:18:32.486Z,3.30
2019-01-05T12:19:32.469Z,4.10
2019-01-05T12:20:32.432Z,3.60
2019-01-05T12:21:35.264Z,3.80
2019-01-05T12:22:33.235Z,3.80
2019-01-05T12:23:33.236Z,4.10
2019-01-05T12:24:33.373Z,4.10
2019-01-05T12:25:32.461Z,3.90
2019-01-05T12:26:33.395Z,4.00
2019-01-05T12:27:32.353Z,4.10
2019-01-05T12:28:32.368Z,3.90
2019-01-05T12:29:32.394Z,3.90
2019-01-05T12:30:32.400Z,3.60
2019-01-05T12:31:32.347Z,3.80
2019-01-05T12:32:33.417Z,3.70
2019-01-05T12:33:32.323Z,3.50
2019-01-05T12:34:34.245Z,3.70
2019-01-05T12:35:32.283Z,3.90
2019-01-05T12:36:32.271Z,3.70
2019-01-05T12:37:34.308Z,3.60
2019-01-05T12:38:33.242Z,3.70
2019-01-05T12:39:32.231Z,3.60
2019-01-05T12:40:35.744Z,3.50
2019-01-05T12:41:36.765Z,3.40
2019-01-05T12:42:32.212Z,3.70
2019-01-05T12:43:39.713Z,3.40
2019-01-05T12:44:32.747Z,3.70
2019-01-05T12:45:33.149Z,3.40
2019-01-05T12:46:32.139Z,3.30
2019-01-05T12:47:33.763Z,3.90
2019-01-05T12:48:32.140Z,3.70
2019-01-05T12:49:32.119Z,4.00
2019-01-05T12:50:32.768Z,3.80
2019-01-05T12:51:32.091Z,3.30
2019-01-05T12:52:32.105Z,3.60
2019-01-05T12:53:32.074Z,3.50
2019-01-05T12:54:32.062Z,3.90
2019-01-05T12:55:32.267Z,3.60
2019-01-05T12:56:32.031Z,3.50
2019-01-05T12:57:32.049Z,3.90
2019-01-05T12:58:33.841Z,3.70
2019-01-05T12:59:33.776Z,3.90
2019-01-05T13:00:32.718Z,3.50
2019-01-05T13:01:32.009Z,3.80
2019-01-05T13:02:31.979Z,3.90
2019-01-05T13:03:31.981Z,3.80
2019-01-05T13:04:31.973Z,4.00
2019-01-05T13:05:31.957Z,4.30
2019-01-05T13:06:32.744Z,5.10
2019-01-05T13:07:32.024Z,4.00
2019-01-05T13:08:32.826Z,4.30
2019-01-05T13:09:31.904Z,4.20
2019-01-05T13:10:32.000Z,4.00
2019-01-05T13:11:32.748Z,7.40
2019-01-05T13:12:34.780Z,17.20
2019-01-05T13:13:36.817Z,5.20
2019-01-05T13:14:32.789Z,7.80
2019-01-05T13:15:34.738Z,5.00
2019-01-05T13:16:33.795Z,3.70
2019-01-05T13:17:32.719Z,3.30
2019-01-05T13:18:32.888Z,3.40
2019-01-05T13:19:35.746Z,3.60
2019-01-05T13:20:34.747Z,3.50
2019-01-05T13:21:33.753Z,3.90
2019-01-05T13:22:31.831Z,6.20
2019-01-05T13:23:31.754Z,4.10